ENZ34D EGAC-EICK
Flight info
| Callsign | ENZ34D |
|---|---|
| Flight time | N/A |
| Altitude | 26000 |
| Route | NEVRI DCT TISMO TISMO1R |
| Aircraft | B462/M-SDFGIRWY/LB1 |
Departure
| Time | 2026-04-21 14:36 |
|---|---|
| Airport | George Best Belfast City Airport (EGAC) |
Arrival
| Time | N/A |
|---|---|
| Airport | Cork International Airport (EICK) |
| Time | Latitude | Longitude | Altitude | Speed | Heading |
|---|---|---|---|---|---|
| 2026-04-21 14:07 | 54.61547 | -5.87093 | 12 ft | 0 kts | 161° |
| 2026-04-21 14:08 | 54.61541 | -5.87089 | 21 ft | 0 kts | 161° |
| 2026-04-21 14:28 | 54.61543 | -5.87091 | 21 ft | 2 kts | 161° |
| 2026-04-21 14:28 | 54.61568 | -5.87104 | 22 ft | 4 kts | 165° |
| 2026-04-21 14:28 | 54.61595 | -5.87114 | 23 ft | 4 kts | 173° |
| 2026-04-21 14:28 | 54.61621 | -5.87112 | 22 ft | 4 kts | 199° |
| 2026-04-21 14:29 | 54.61633 | -5.87101 | 22 ft | 1 kts | 214° |
| 2026-04-21 14:29 | 54.61634 | -5.87100 | 22 ft | 0 kts | 214° |
| 2026-04-21 14:33 | 54.61601 | -5.87140 | 23 ft | 10 kts | 214° |
| 2026-04-21 14:33 | 54.61518 | -5.87239 | 21 ft | 19 kts | 214° |
| 2026-04-21 14:33 | 54.61397 | -5.87413 | 21 ft | 25 kts | 230° |
| 2026-04-21 14:34 | 54.61283 | -5.87565 | 19 ft | 16 kts | 214° |
| 2026-04-21 14:34 | 54.61215 | -5.87649 | 16 ft | 8 kts | 216° |
| 2026-04-21 14:34 | 54.61173 | -5.87688 | 18 ft | 6 kts | 207° |
| 2026-04-21 14:34 | 54.61153 | -5.87709 | 16 ft | 0 kts | 213° |
| 2026-04-21 14:35 | 54.61139 | -5.87731 | 17 ft | 6 kts | 225° |
| 2026-04-21 14:35 | 54.61089 | -5.87809 | 18 ft | 13 kts | 236° |
| 2026-04-21 14:35 | 54.61118 | -5.88002 | 17 ft | 20 kts | 306° |
| 2026-04-21 14:35 | 54.61163 | -5.88028 | 18 ft | 0 kts | 30° |
| 2026-04-21 14:36 | 54.61173 | -5.88018 | 19 ft | 15 kts | 33° |
| 2026-04-21 14:36 | 54.61492 | -5.87633 | 12 ft | 95 kts | 34° |
| 2026-04-21 14:36 | 54.62180 | -5.86772 | 215 ft | 140 kts | 37° |
| 2026-04-21 14:36 | 54.63062 | -5.85874 | 805 ft | 154 kts | 30° |
| 2026-04-21 14:37 | 54.64102 | -5.85285 | 1538 ft | 164 kts | 24° |
| 2026-04-21 14:37 | 54.65252 | -5.84614 | 2026 ft | 184 kts | 26° |
| 2026-04-21 14:37 | 54.66446 | -5.83525 | 2419 ft | 208 kts | 51° |
| 2026-04-21 14:37 | 54.67021 | -5.81144 | 2838 ft | 231 kts | 92° |
| 2026-04-21 14:38 | 54.66490 | -5.78669 | 4192 ft | 221 kts | 126° |
| 2026-04-21 14:38 | 54.65685 | -5.77544 | 4895 ft | 232 kts | 149° |
| 2026-04-21 14:38 | 54.64061 | -5.76919 | 5901 ft | 244 kts | 169° |
| 2026-04-21 14:38 | 54.62377 | -5.76851 | 6975 ft | 251 kts | 185° |
| 2026-04-21 14:39 | 54.60698 | -5.77986 | 7978 ft | 260 kts | 202° |
| 2026-04-21 14:39 | 54.59073 | -5.79407 | 8987 ft | 264 kts | 202° |
| 2026-04-21 14:39 | 54.57436 | -5.80884 | 9999 ft | 267 kts | 203° |
| 2026-04-21 14:39 | 54.55805 | -5.82462 | 10917 ft | 271 kts | 205° |
| 2026-04-21 14:40 | 54.54170 | -5.84118 | 11797 ft | 274 kts | 206° |
| 2026-04-21 14:40 | 54.52543 | -5.85773 | 12652 ft | 277 kts | 206° |
| 2026-04-21 14:40 | 54.50867 | -5.87460 | 13484 ft | 280 kts | 206° |
| 2026-04-21 14:40 | 54.49153 | -5.89168 | 14296 ft | 283 kts | 206° |
| 2026-04-21 14:41 | 54.47459 | -5.90832 | 14969 ft | 285 kts | 206° |
| 2026-04-21 14:41 | 54.45723 | -5.92524 | 15622 ft | 289 kts | 205° |
| 2026-04-21 14:41 | 54.43965 | -5.94219 | 16248 ft | 291 kts | 205° |
| 2026-04-21 14:41 | 54.42185 | -5.95918 | 16851 ft | 294 kts | 205° |
| 2026-04-21 14:42 | 54.40385 | -5.97627 | 17429 ft | 297 kts | 205° |
| 2026-04-21 14:42 | 54.38565 | -5.99350 | 17981 ft | 299 kts | 205° |
| 2026-04-21 14:42 | 54.36731 | -6.01082 | 18511 ft | 302 kts | 205° |
| 2026-04-21 14:42 | 54.34885 | -6.02830 | 19002 ft | 304 kts | 206° |
| 2026-04-21 14:43 | 54.33023 | -6.04591 | 19441 ft | 306 kts | 206° |
| 2026-04-21 14:43 | 54.31152 | -6.06348 | 19869 ft | 308 kts | 207° |
| 2026-04-21 14:43 | 54.29267 | -6.08110 | 20266 ft | 310 kts | 208° |
| 2026-04-21 14:43 | 54.27391 | -6.09869 | 20657 ft | 312 kts | 209° |
| 2026-04-21 14:44 | 54.25459 | -6.11682 | 21029 ft | 313 kts | 210° |
| 2026-04-21 14:44 | 54.23553 | -6.13474 | 21266 ft | 320 kts | 210° |
| 2026-04-21 14:44 | 54.21576 | -6.15334 | 21360 ft | 329 kts | 210° |
| 2026-04-21 14:44 | 54.19540 | -6.17260 | 21411 ft | 340 kts | 211° |
| 2026-04-21 14:45 | 54.17427 | -6.19243 | 21308 ft | 354 kts | 208° |
| 2026-04-21 14:45 | 54.15015 | -6.20529 | 21097 ft | 376 kts | 187° |
| 2026-04-21 14:45 | 54.12393 | -6.20230 | 20809 ft | 376 kts | 167° |
| 2026-04-21 14:45 | 54.10019 | -6.18456 | 20318 ft | 372 kts | 147° |
| 2026-04-21 14:46 | 54.08158 | -6.15446 | 19841 ft | 368 kts | 126° |
| 2026-04-21 14:46 | 54.07043 | -6.11589 | 19385 ft | 363 kts | 106° |
| 2026-04-21 14:46 | 54.06566 | -6.07417 | 18951 ft | 356 kts | 100° |
| 2026-04-21 14:46 | 54.06203 | -6.03287 | 18494 ft | 348 kts | 98° |
| 2026-04-21 14:47 | 54.06289 | -5.99208 | 17973 ft | 346 kts | 77° |
| 2026-04-21 14:47 | 54.07317 | -5.95527 | 17458 ft | 347 kts | 55° |
| 2026-04-21 14:47 | 54.09094 | -5.92780 | 16964 ft | 348 kts | 33° |
| 2026-04-21 14:47 | 54.11328 | -5.91372 | 16491 ft | 349 kts | 11° |
| 2026-04-21 14:48 | 54.13746 | -5.91443 | 16014 ft | 349 kts | 349° |
| 2026-04-21 14:48 | 54.16006 | -5.92944 | 15570 ft | 347 kts | 333° |
| 2026-04-21 14:48 | 54.18109 | -5.94918 | 15123 ft | 344 kts | 332° |
| 2026-04-21 14:48 | 54.20185 | -5.96925 | 14646 ft | 342 kts | 331° |
| 2026-04-21 14:49 | 54.22256 | -5.99001 | 14005 ft | 346 kts | 330° |
| 2026-04-21 14:49 | 54.24331 | -6.01118 | 13327 ft | 348 kts | 330° |
| 2026-04-21 14:49 | 54.26380 | -6.03249 | 12672 ft | 349 kts | 330° |
| 2026-04-21 14:49 | 54.28459 | -6.05435 | 12039 ft | 350 kts | 330° |